| time (UTC) | temp F | wind direction | speed knots | gust knots | rain 1hr in | rain 24hr in | rain mn in | humidity % | barometer mb |
| 20260503184551 | 79 | 12 | 0.9 | 3.5 | 0.00 | 0.00 | 0.00 | 46 | 1011.4 |
| 20260503183050 | 77 | 0 | 0.0 | 1.7 | 0.00 | 0.00 | 0.00 | 49 | 1011.6 |
| 20260503181552 | 74 | 26 | 0.0 | 2.6 | 0.00 | 0.00 | 0.00 | 52 | 1011.7 |
| 20260503180058 | 72 | 0 | 0.0 | 3.5 | 0.00 | 0.00 | 0.00 | 58 | 1011.8 |
| 20260503174554 | 71 | 0 | 0.0 | 1.7 | 0.00 | 0.00 | 0.00 | 60 | 1011.9 |
| 20260503173100 | 69 | 0 | 0.0 | 4.3 | 0.00 | 0.00 | 0.00 | 62 | 1011.9 |
| 20260503171554 | 68 | 0 | 0.9 | 4.3 | 0.00 | 0.00 | 0.00 | 64 | 1012.0 |
| 20260503170105 | 67 | 0 | 0.0 | 4.3 | 0.00 | 0.00 | 0.00 | 66 | 1012.0 |
| 20260503160106 | 63 | 0 | 0.0 | 1.7 | 0.00 | 0.00 | 0.00 | 74 | 1012.1 |
| 20260503100104 | 57 | 0 | 0.0 | 0.0 | 0.00 | 0.00 | 0.00 | 87 | 1012.3 |
| 20260503081552 | 58 | 0 | 0.0 | 0.0 | 0.00 | 0.00 | 0.00 | 85 | 1012.8 |
| 20260503080103 | 58 | 0 | 0.0 | 0.0 | 0.00 | 0.00 | 0.00 | 85 | 1012.7 |
| 20260503071610 | 58 | 0 | 0.0 | 0.0 | 0.00 | 0.00 | 0.00 | 85 | 1012.9 |
| 20260503054613 | 60 | 0 | 0.0 | 0.0 | 0.00 | 0.00 | 0.00 | 82 | 1013.0 |
| 20260503053052 | 60 | 0 | 0.0 | 0.0 | 0.00 | 0.00 | 0.00 | 81 | 1012.9 |
| 20260503051601 | 61 | 0 | 0.0 | 0.0 | 0.00 | 0.00 | 0.00 | 81 | 1012.7 |
| 20260503050059 | 61 | 0 | 0.0 | 0.9 | 0.00 | 0.00 | 0.00 | 80 | 1012.8 |
| 20260503044600 | 61 | 0 | 0.0 | 1.7 | 0.00 | 0.00 | 0.00 | 80 | 1013.0 |
| 20260503043058 | 61 | 355 | 0.0 | 1.7 | 0.00 | 0.00 | 0.00 | 80 | 1012.5 |
| 20260503041600 | 61 | 355 | 0.9 | 1.7 | 0.00 | 0.00 | 0.00 | 80 | 1012.5 |
| 20260503040057 | 62 | 0 | 0.0 | 0.9 | 0.00 | 0.00 | 0.00 | 78 | 1012.9 |
| 20260503034558 | 62 | 0 | 0.0 | 0.0 | 0.00 | 0.00 | 0.00 | 77 | 1012.9 |
| 20260503033104 | 63 | 0 | 0.0 | 0.9 | 0.00 | 0.00 | 0.00 | 76 | 1012.7 |
| 20260503031553 | 63 | 0 | 0.0 | 0.9 | 0.00 | 0.00 | 0.00 | 75 | 1012.4 |
| 20260503030055 | 63 | 0 | 0.0 | 0.9 | 0.00 | 0.00 | 0.00 | 74 | 1012.3 |
| 20260503024549 | 64 | 0 | 0.0 | 2.6 | 0.00 | 0.00 | 0.00 | 74 | 1012.4 |
| 20260503023057 | 64 | 0 | 0.0 | 4.3 | 0.00 | 0.00 | 0.00 | 73 | 1012.7 |
| 20260503021552 | 65 | 229 | 0.9 | 5.2 | 0.00 | 0.00 | 0.00 | 72 | 1012.8 |
| 20260503020053 | 66 | 192 | 0.0 | 4.3 | 0.00 | 0.00 | 0.00 | 71 | 1012.8 |
| 20260503014601 | 67 | 0 | 0.0 | 1.7 | 0.00 | 0.00 | 0.00 | 69 | 1012.1 |
| 20260503013051 | 67 | 0 | 0.0 | 0.9 | 0.00 | 0.00 | 0.00 | 69 | 1012.0 |
| 20260503011553 | 67 | 0 | 0.0 | 1.7 | 0.00 | 0.00 | 0.00 | 68 | 1012.0 |
| 20260503010055 | 68 | 0 | 0.0 | 2.6 | 0.00 | 0.00 | 0.00 | 67 | 1011.9 |
| 20260503004616 | 68 | 0 | 0.0 | 1.7 | 0.00 | 0.00 | 0.00 | 68 | 1011.8 |
| 20260503003055 | 68 | 0 | 0.0 | 2.6 | 0.00 | 0.00 | 0.00 | 66 | 1011.8 |
| 20260503001555 | 69 | 128 | 0.0 | 3.5 | 0.00 | 0.00 | 0.00 | 65 | 1011.8 |
| 20260503000053 | 69 | 246 | 0.9 | 5.2 | 0.00 | 0.00 | 0.00 | 64 | 1011.8 |
| 20260502234556 | 70 | 290 | 0.0 | 5.2 | 0.00 | 0.00 | 0.00 | 63 | 1012.0 |
| 20260502233047 | 70 | 0 | 0.0 | 2.6 | 0.00 | 0.00 | 0.00 | 61 | 1012.2 |
| 20260502231559 | 70 | 0 | 0.0 | 1.7 | 0.00 | 0.00 | 0.00 | 59 | 1012.4 |
| 20260502230051 | 70 | 0 | 0.0 | 1.7 | 0.00 | 0.00 | 0.00 | 61 | 1012.6 |
| 20260502224550 | 70 | 355 | 0.0 | 3.5 | 0.00 | 0.00 | 0.00 | 61 | 1012.9 |
| 20260502223057 | 69 | 0 | 0.0 | 1.7 | 0.00 | 0.00 | 0.00 | 63 | 1013.1 |
| 20260502221558 | 67 | 0 | 0.0 | 1.7 | 0.00 | 0.00 | 0.00 | 64 | 1013.4 |
| 20260502220055 | 67 | 254 | 0.9 | 3.5 | 0.00 | 0.00 | 0.00 | 62 | 1013.5 |
| 20260502214557 | 67 | 0 | 0.0 | 1.7 | 0.00 | 0.00 | 0.00 | 66 | 1013.8 |
| 20260502213054 | 65 | 0 | 0.0 | 2.6 | 0.00 | 0.00 | 0.00 | 68 | 1014.0 |
| 20260502211555 | 65 | 44 | 0.0 | 1.7 | 0.00 | 0.00 | 0.00 | 67 | 1014.2 |
| 20260502210106 | 64 | 0 | 0.0 | 2.6 | 0.00 | 0.00 | 0.00 | 70 | 1014.4 |
| 20260502204555 | 63 | 346 | 0.0 | 3.5 | 0.00 | 0.00 | 0.00 | 70 | 1014.6 |
| 20260502203052 | 61 | 0 | 0.0 | 2.6 | 0.00 | 0.00 | 0.00 | 74 | 1015.0 |
| 20260502201553 | 60 | 24 | 0.0 | 2.6 | 0.00 | 0.00 | 0.00 | 79 | 1015.1 |
| 20260502200055 | 58 | 360 | 0.0 | 2.6 | 0.00 | 0.00 | 0.00 | 78 | 1015.1 |
| 20260502194557 | 58 | 198 | 0.0 | 2.6 | 0.00 | 0.00 | 0.00 | 82 | 1015.3 |
| 20260502193054 | 56 | 0 | 0.9 | 3.5 | 0.00 | 0.00 | 0.00 | 85 | 1015.4 |
| 20260502191558 | 55 | 0 | 0.0 | 1.7 | 0.00 | 0.00 | 0.00 | 86 | 1015.6 |
| 20260502190054 | 55 | 0 | 0.0 | 2.6 | 0.00 | 0.00 | 0.00 | 85 | 1016.1 |